Time;durP1;ratioP1;P1;durP2;ratioP2;P2;SDS_P1;SDS_P2;PMS_P1;PMS_P2;Temp;Humidity;BMP_temperature;BMP_pressure;BME280_temperature;BME280_humidity;BME280_pressure;Samples;Min_cycle;Max_cycle;Signal;HPM_P1;HPM_P2
2022/05/12 00:00:13;;;;;;;5.45;1.48;;;;;;;24.50;42.13;101116.94;5036513;28;20021;-65
2022/05/12 00:02:39;;;;;;;3.10;1.25;;;;;;;24.49;42.18;101122.59;5036557;28;20029;-65
2022/05/12 00:05:06;;;;;;;7.85;1.27;;;;;;;24.47;42.52;101116.50;5036331;28;20079;-65
2022/05/12 00:07:31;;;;;;;8.82;2.58;;;;;;;24.46;42.43;101121.13;5036802;28;20048;-64
2022/05/12 00:09:56;;;;;;;1.40;1.30;;;;;;;24.44;42.11;101125.16;5036542;28;20025;-64
2022/05/12 00:12:23;;;;;;;3.80;1.33;;;;;;;24.42;41.90;101125.38;5036255;28;20017;-65
2022/05/12 00:14:48;;;;;;;5.32;1.10;;;;;;;24.39;41.98;101134.00;5036415;28;20018;-64
2022/05/12 00:17:14;;;;;;;2.42;1.13;;;;;;;24.40;42.73;101134.84;5036126;28;20038;-64
2022/05/12 00:19:39;;;;;;;1.88;1.30;;;;;;;24.40;42.41;101140.34;5036097;28;20029;-65
2022/05/12 00:22:05;;;;;;;5.93;1.20;;;;;;;24.38;42.13;101143.28;5034990;28;20076;-65
2022/05/12 00:24:30;;;;;;;5.47;1.30;;;;;;;24.38;42.19;101159.69;5036007;28;20034;-65
2022/05/12 00:26:56;;;;;;;2.17;1.05;;;;;;;24.38;42.89;101150.63;5036483;28;20030;-65
2022/05/12 00:29:21;;;;;;;3.95;1.15;;;;;;;24.37;41.97;101149.81;5036017;28;20033;-65
2022/05/12 00:31:47;;;;;;;1.50;1.00;;;;;;;24.33;42.25;101154.88;5036053;28;20032;-65
2022/05/12 00:34:15;;;;;;;4.90;1.55;;;;;;;24.29;43.05;101158.22;5036065;28;20021;-65
2022/05/12 00:36:41;;;;;;;5.13;1.30;;;;;;;24.24;42.73;101174.44;5035865;28;20031;-64
2022/05/12 00:39:06;;;;;;;5.60;2.30;;;;;;;24.19;42.54;101176.97;5035845;28;20530;-65
2022/05/12 00:41:32;;;;;;;6.90;2.00;;;;;;;24.11;42.12;101175.28;5035862;28;20017;-65
2022/05/12 00:44:02;;;;;;;5.00;2.10;;;;;;;24.07;42.80;101184.94;5018315;28;20108;-65
2022/05/12 00:46:33;;;;;;;8.07;2.05;;;;;;;24.06;42.21;101179.69;5035835;28;20075;-65
2022/05/12 00:49:14;;;;;;;2.42;1.92;;;;;;;23.98;41.88;101190.81;5035551;28;20075;-65
2022/05/12 00:51:48;;;;;;;6.53;2.10;;;;;;;23.90;41.39;101193.75;5017911;28;20041;-65
2022/05/12 00:54:50;;;;;;;6.43;2.10;;;;;;;23.86;42.48;101198.78;5035459;28;20021;-65
2022/05/12 00:57:20;;;;;;;3.72;2.58;;;;;;;23.82;42.18;101196.66;4987072;28;20072;-65
2022/05/12 00:59:46;;;;;;;4.18;2.40;;;;;;;23.78;42.19;101196.25;5035322;28;20031;-65
2022/05/12 01:02:17;;;;;;;5.28;2.40;;;;;;;23.73;42.42;101196.84;5017709;28;20025;-65
2022/05/12 01:04:43;;;;;;;6.57;2.47;;;;;;;23.71;42.08;101198.09;5035457;28;20429;-65
2022/05/12 01:07:09;;;;;;;5.60;2.88;;;;;;;23.66;41.69;101204.22;5035160;28;20107;-65
2022/05/12 01:09:34;;;;;;;6.75;3.00;;;;;;;23.64;42.12;101203.56;5035230;28;20029;-64
2022/05/12 01:12:00;;;;;;;6.65;3.85;;;;;;;23.59;41.57;101210.72;5035384;28;20032;-65
2022/05/12 01:14:26;;;;;;;3.83;2.90;;;;;;;23.57;41.41;101213.63;5035026;28;20029;-64
2022/05/12 01:16:59;;;;;;;7.88;3.03;;;;;;;23.52;41.48;101216.16;5035004;28;20034;-64
2022/05/12 01:19:28;;;;;;;6.68;3.75;;;;;;;23.47;41.42;101228.75;5035041;28;20052;-65
2022/05/12 01:21:54;;;;;;;6.00;3.20;;;;;;;23.47;41.37;101229.59;5035172;28;20530;-65
2022/05/12 01:24:22;;;;;;;7.43;3.13;;;;;;;23.46;42.08;101236.09;5034881;28;20067;-65
2022/05/12 01:26:48;;;;;;;4.70;3.20;;;;;;;23.44;42.36;101235.47;5035216;28;20438;-64
2022/05/12 01:29:14;;;;;;;5.40;2.65;;;;;;;23.45;41.12;101241.78;5035067;28;20033;-65
2022/05/12 01:31:40;;;;;;;4.65;2.72;;;;;;;23.43;41.25;101241.97;5034707;28;20479;-64
2022/05/12 01:34:08;;;;;;;3.42;3.15;;;;;;;23.42;41.24;101244.94;5034673;28;20423;-64
2022/05/12 01:36:34;;;;;;;7.55;3.00;;;;;;;23.39;41.64;101248.91;5034702;28;20390;-65
2022/05/12 01:39:00;;;;;;;8.60;3.67;;;;;;;23.38;41.21;101244.47;5034714;28;20094;-65
2022/05/12 01:41:25;;;;;;;9.05;3.53;;;;;;;23.35;42.00;101250.31;5016962;28;20390;-65
2022/05/12 01:43:51;;;;;;;6.80;3.22;;;;;;;23.33;41.62;101255.16;5034474;28;20104;-65
2022/05/12 01:46:16;;;;;;;9.82;3.00;;;;;;;23.30;41.54;101261.03;5016812;28;20022;-63
2022/05/12 01:48:42;;;;;;;3.65;2.83;;;;;;;23.27;42.25;101263.31;5034525;28;20037;-65
2022/05/12 01:51:08;;;;;;;7.22;3.00;;;;;;;23.23;41.99;101276.53;5034464;28;20115;-65
2022/05/12 01:53:34;;;;;;;4.93;3.08;;;;;;;23.17;41.89;101269.16;5034444;28;20018;-64
2022/05/12 01:55:59;;;;;;;4.25;3.15;;;;;;;23.15;42.05;101279.41;5034295;28;20049;-65
2022/05/12 01:58:25;;;;;;;7.07;2.78;;;;;;;23.11;41.98;101280.88;5034422;28;20503;-65
2022/05/12 02:00:51;;;;;;;6.80;2.75;;;;;;;23.08;41.11;101276.66;5034171;28;20033;-64
2022/05/12 02:03:17;;;;;;;6.65;2.65;;;;;;;23.03;42.04;101289.22;5034127;28;20071;-64
2022/05/12 02:05:43;;;;;;;9.82;3.42;;;;;;;22.98;42.01;101291.69;5034198;28;20057;-65
2022/05/12 02:08:11;;;;;;;8.75;2.38;;;;;;;22.98;42.03;101291.69;5034091;28;20116;-65
2022/05/12 02:10:39;;;;;;;3.95;2.60;;;;;;;22.92;40.90;101292.50;5033968;28;20025;-64
2022/05/12 02:13:06;;;;;;;8.93;2.75;;;;;;;22.89;42.12;101298.38;5034144;28;20025;-65
2022/05/12 02:15:31;;;;;;;8.27;2.40;;;;;;;22.83;40.92;101305.47;5034156;28;20049;-65
2022/05/12 02:17:56;;;;;;;4.78;2.60;;;;;;;22.79;41.73;101301.44;5033928;28;20021;-65
2022/05/12 02:20:23;;;;;;;4.13;1.88;;;;;;;22.78;41.27;101302.47;5033911;28;20032;-65
2022/05/12 02:22:49;;;;;;;3.53;2.05;;;;;;;22.75;41.82;101318.41;5033765;28;20060;-65
2022/05/12 02:25:15;;;;;;;4.22;1.75;;;;;;;22.71;41.20;101317.97;5033865;28;20033;-65
2022/05/12 02:27:45;;;;;;;5.60;1.67;;;;;;;22.67;41.33;101315.84;5034004;28;20037;-65
2022/05/12 02:30:18;;;;;;;4.88;2.00;;;;;;;22.64;41.84;101313.50;5033780;28;20028;-65
2022/05/12 02:32:44;;;;;;;3.25;1.75;;;;;;;22.59;41.15;101320.34;5033508;28;20025;-64
2022/05/12 02:35:10;;;;;;;4.18;1.90;;;;;;;22.55;41.30;101324.50;5033552;28;20029;-65
2022/05/12 02:37:35;;;;;;;5.55;2.80;;;;;;;22.50;41.64;101318.75;5016019;28;20026;-65
2022/05/12 02:40:00;;;;;;;8.95;2.40;;;;;;;22.46;41.35;101322.94;5033657;28;20025;-64
2022/05/12 02:42:26;;;;;;;2.45;1.55;;;;;;;22.37;41.33;101321.38;5016300;28;20022;-64
2022/05/12 02:44:51;;;;;;;9.57;2.15;;;;;;;22.36;41.70;101330.59;5033108;28;20025;-65
2022/05/12 02:47:17;;;;;;;8.43;2.15;;;;;;;22.31;41.58;101334.94;5033609;28;20406;-65
2022/05/12 02:49:43;;;;;;;4.05;2.20;;;;;;;22.25;41.47;101339.28;5033623;28;20479;-65
2022/05/12 02:52:09;;;;;;;4.97;2.30;;;;;;;22.19;41.47;101350.16;5033410;28;20026;-65
2022/05/12 02:54:35;;;;;;;8.75;2.10;;;;;;;22.13;41.34;101349.03;5033609;28;20506;-65
2022/05/12 02:57:00;;;;;;;6.85;2.00;;;;;;;22.11;41.32;101353.00;5033261;28;20053;-64
2022/05/12 02:59:26;;;;;;;5.57;2.35;;;;;;;22.08;40.89;101361.56;5033321;28;20037;-65
2022/05/12 03:01:51;;;;;;;5.85;1.90;;;;;;;22.03;41.45;101346.59;5033279;28;20025;-65
2022/05/12 03:04:17;;;;;;;5.95;2.30;;;;;;;21.99;41.96;101355.34;5033455;28;20029;-65
2022/05/12 03:06:43;;;;;;;3.67;1.90;;;;;;;21.91;41.29;101347.28;5033520;28;20025;-65
2022/05/12 03:09:08;;;;;;;5.72;2.03;;;;;;;21.82;41.03;101353.84;5033355;28;20498;-65
2022/05/12 03:11:34;;;;;;;6.35;2.10;;;;;;;21.72;41.49;101353.28;5033549;28;20029;-65
2022/05/12 03:13:59;;;;;;;4.18;2.35;;;;;;;21.62;41.64;101358.16;5033422;28;20024;-65
2022/05/12 03:16:25;;;;;;;4.93;2.60;;;;;;;21.53;40.86;101365.59;5015831;28;20033;-65
2022/05/12 03:18:53;;;;;;;5.60;2.45;;;;;;;21.47;41.47;101371.78;5015584;28;20442;-65
2022/05/12 03:21:19;;;;;;;4.80;2.10;;;;;;;21.40;41.93;101371.69;5033347;28;20028;-65
2022/05/12 03:23:44;;;;;;;7.35;3.22;;;;;;;21.35;41.54;101374.16;5032967;28;20410;-65
2022/05/12 03:26:10;;;;;;;3.80;2.08;;;;;;;21.29;42.33;101374.03;5032953;28;20040;-64
2022/05/12 03:28:36;;;;;;;7.68;2.40;;;;;;;21.24;41.94;101380.06;5033255;28;20040;-65
2022/05/12 03:31:02;;;;;;;3.38;2.45;;;;;;;21.18;41.69;101375.34;5033270;28;20021;-65
2022/05/12 03:33:27;;;;;;;8.98;3.10;;;;;;;21.12;42.08;101377.94;5033050;28;20025;-65
2022/05/12 03:35:53;;;;;;;9.13;2.88;;;;;;;21.06;41.80;101379.50;5032925;28;20094;-65
2022/05/12 03:38:19;;;;;;;7.68;2.72;;;;;;;21.00;41.79;101382.94;5032918;28;20053;-65
2022/05/12 03:40:45;;;;;;;7.95;2.63;;;;;;;20.95;42.03;101388.09;5033202;28;20044;-65
2022/05/12 03:43:11;;;;;;;3.75;2.85;;;;;;;20.87;41.96;101388.16;5032867;28;20075;-65
2022/05/12 03:45:36;;;;;;;5.60;2.75;;;;;;;20.81;42.05;101392.47;5032947;28;20024;-66
2022/05/12 03:48:02;;;;;;;6.97;3.65;;;;;;;20.74;42.50;101391.47;5032932;28;20032;-65
2022/05/12 03:50:28;;;;;;;11.00;3.55;;;;;;;20.72;42.52;101398.13;5032902;28;20029;-65
2022/05/12 03:52:55;;;;;;;9.45;3.97;;;;;;;20.69;42.07;101406.66;5032926;28;20021;-65
2022/05/12 03:55:24;;;;;;;10.32;4.32;;;;;;;20.67;42.59;101408.72;5033808;28;20424;-65
2022/05/12 03:57:51;;;;;;;5.43;3.75;;;;;;;20.65;42.28;101408.94;5036378;28;20128;-65
2022/05/12 04:00:24;;;;;;;7.50;4.18;;;;;;;20.63;42.49;101412.88;5036476;28;20030;-65
2022/05/12 04:02:49;;;;;;;6.25;4.43;;;;;;;20.60;42.37;101422.22;5036453;28;20033;-65
2022/05/12 04:05:15;;;;;;;7.05;4.13;;;;;;;20.57;42.65;101419.88;5036423;28;20034;-65
2022/05/12 04:07:43;;;;;;;7.93;4.32;;;;;;;20.54;43.05;101422.94;5036399;28;20029;-65
2022/05/12 04:10:10;;;;;;;6.75;4.50;;;;;;;20.51;42.45;101422.44;5036659;28;20030;-65
2022/05/12 04:12:35;;;;;;;10.57;4.32;;;;;;;20.49;42.83;101425.34;5036556;28;20059;-65
2022/05/12 04:15:00;;;;;;;9.38;4.82;;;;;;;20.49;42.55;101438.94;5036262;28;20356;-65
2022/05/12 04:17:26;;;;;;;6.28;4.20;;;;;;;20.50;43.13;101431.63;5036446;28;20444;-65
2022/05/12 04:19:52;;;;;;;9.63;4.97;;;;;;;20.52;43.09;101435.88;5036289;28;20387;-65
2022/05/12 04:22:18;;;;;;;7.20;4.70;;;;;;;20.56;42.97;101444.53;5036057;28;20032;-65
2022/05/12 04:24:43;;;;;;;10.18;4.90;;;;;;;20.60;42.92;101446.72;5036056;28;20113;-64
2022/05/12 04:27:09;;;;;;;9.45;4.50;;;;;;;20.64;43.09;101448.06;5036726;28;20030;-64
2022/05/12 04:29:44;;;;;;;6.50;4.35;;;;;;;20.69;43.78;101447.50;5035959;28;20120;-65
2022/05/12 04:32:10;;;;;;;11.68;5.00;;;;;;;20.75;43.65;101457.69;5018637;28;20033;-65
2022/05/12 04:37:28;;;;;;;9.13;4.80;;;;;;;20.85;43.19;101466.50;5035934;28;20032;-65
2022/05/12 04:39:53;;;;;;;11.48;5.43;;;;;;;20.88;43.17;101468.84;5036129;28;20474;-65
2022/05/12 04:42:19;;;;;;;11.25;5.93;;;;;;;20.98;43.53;101471.31;5035757;28;20104;-64
2022/05/12 04:44:44;;;;;;;11.27;5.07;;;;;;;21.05;43.62;101469.59;5035719;28;20033;-65
2022/05/12 04:47:09;;;;;;;9.35;4.63;;;;;;;21.13;43.33;101473.13;5035829;28;20025;-65
2022/05/12 04:49:35;;;;;;;9.38;4.97;;;;;;;21.21;43.28;101477.66;5035700;28;20490;-64
2022/05/12 04:52:02;;;;;;;17.80;6.00;;;;;;;21.26;43.45;101483.41;5035853;28;20021;-65
2022/05/12 04:54:28;;;;;;;15.77;5.57;;;;;;;21.37;43.53;101496.59;5035793;28;20021;-65
2022/05/12 04:56:54;;;;;;;9.52;5.53;;;;;;;21.44;43.69;101492.09;5017973;28;20503;-65
2022/05/12 04:59:19;;;;;;;8.05;5.28;;;;;;;21.54;43.49;101506.34;5035385;28;20036;-64
2022/05/12 05:01:44;;;;;;;11.93;5.75;;;;;;;21.64;43.55;101493.28;5035413;28;20029;-65
2022/05/12 05:04:10;;;;;;;8.98;5.25;;;;;;;21.74;43.75;101493.91;5035199;28;20080;-65
2022/05/12 05:06:36;;;;;;;19.13;5.28;;;;;;;21.84;43.68;101510.81;5035038;28;20025;-64
2022/05/12 05:09:01;;;;;;;12.73;5.32;;;;;;;21.94;43.53;101505.97;5035125;28;20045;-65
2022/05/12 05:11:27;;;;;;;11.57;6.55;;;;;;;22.02;42.96;101505.91;5035117;28;20021;-65
2022/05/12 05:13:53;;;;;;;13.15;5.65;;;;;;;22.14;43.18;101510.91;5035174;28;20072;-65
2022/05/12 05:16:18;;;;;;;12.27;6.10;;;;;;;22.23;43.01;101509.75;5035064;28;20471;-64
2022/05/12 05:18:45;;;;;;;10.48;5.80;;;;;;;22.33;43.35;101508.47;5034938;28;20146;-65
2022/05/12 05:21:10;;;;;;;9.15;5.60;;;;;;;22.45;42.93;101515.13;5035057;28;20590;-65
2022/05/12 05:23:39;;;;;;;10.07;5.97;;;;;;;22.58;43.22;101525.38;5034903;28;20104;-65
2022/05/12 05:26:04;;;;;;;11.75;5.45;;;;;;;22.70;43.05;101523.88;5035263;28;20037;-64
2022/05/12 05:28:30;;;;;;;9.98;5.95;;;;;;;22.85;42.26;101529.31;5035318;28;20029;-65
2022/05/12 05:30:56;;;;;;;12.55;6.18;;;;;;;22.99;42.07;101536.63;5034788;28;20033;-65
2022/05/12 05:33:21;;;;;;;12.95;6.43;;;;;;;23.12;42.98;101536.75;5034656;28;20032;-65
2022/05/12 05:35:47;;;;;;;15.70;6.72;;;;;;;23.21;42.95;101530.13;5034921;28;20149;-65
2022/05/12 05:38:13;;;;;;;14.75;6.90;;;;;;;23.32;42.35;101535.09;5034935;28;20116;-65
2022/05/12 05:40:38;;;;;;;14.68;6.03;;;;;;;23.41;42.91;101550.38;5034997;28;20031;-64
2022/05/12 05:43:04;;;;;;;16.13;5.53;;;;;;;23.54;41.90;101545.00;5034571;28;20393;-65
2022/05/12 05:45:29;;;;;;;11.45;6.45;;;;;;;23.73;41.55;101552.53;5016861;28;20483;-65
2022/05/12 05:47:58;;;;;;;12.70;7.38;;;;;;;23.89;42.50;101553.31;5034908;28;20442;-65
2022/05/12 05:50:26;;;;;;;10.35;6.45;;;;;;;23.99;41.36;101560.13;5034296;28;20025;-65
2022/05/12 05:55:36;;;;;;;15.00;6.97;;;;;;;24.18;41.41;101569.56;5034322;28;20029;-65
2022/05/12 05:58:04;;;;;;;17.45;7.60;;;;;;;24.33;41.59;101567.56;5034182;28;20503;-65
2022/05/12 06:00:31;;;;;;;14.60;7.68;;;;;;;24.40;41.62;101571.19;5034181;28;20079;-65
2022/05/12 06:02:57;;;;;;;13.70;6.82;;;;;;;24.46;41.14;101581.34;5034303;28;20072;-64
2022/05/12 06:05:22;;;;;;;15.38;7.28;;;;;;;24.60;41.24;101585.00;5034497;28;20480;-65
2022/05/12 06:07:47;;;;;;;15.75;7.70;;;;;;;24.69;41.31;101589.28;5034157;28;20036;-65
2022/05/12 06:10:13;;;;;;;14.23;7.10;;;;;;;24.76;40.71;101579.22;5034122;28;20091;-65
2022/05/12 06:12:40;;;;;;;15.40;7.43;;;;;;;24.84;40.40;101585.41;5034255;28;20052;-65
2022/05/12 06:15:07;;;;;;;13.73;7.85;;;;;;;24.97;40.75;101586.47;5034150;28;20033;-65
2022/05/12 06:17:34;;;;;;;13.63;7.65;;;;;;;25.10;40.71;101587.38;5033843;28;20147;-65
2022/05/12 06:19:59;;;;;;;16.75;7.40;;;;;;;25.24;41.13;101591.84;5033031;28;20037;-65
2022/05/12 06:22:26;;;;;;;14.45;7.35;;;;;;;25.38;40.40;101590.84;5034078;28;20112;-65
2022/05/12 06:24:51;;;;;;;12.50;6.97;;;;;;;25.48;40.19;101597.88;5033971;28;20477;-65
2022/05/12 06:27:22;;;;;;;13.85;7.18;;;;;;;25.65;40.33;101596.41;5034218;28;20025;-64
2022/05/12 06:29:48;;;;;;;16.55;7.03;;;;;;;25.83;40.23;101602.13;5033600;28;20034;-65
2022/05/12 06:32:15;;;;;;;16.25;6.88;;;;;;;25.97;40.12;101596.44;5034072;28;20108;-64
2022/05/12 06:34:42;;;;;;;12.40;7.05;;;;;;;26.13;39.77;101599.81;5033949;28;20439;-65
2022/05/12 06:37:08;;;;;;;15.20;7.50;;;;;;;26.28;39.51;101597.72;5033867;28;20479;-65
2022/05/12 06:39:33;;;;;;;17.40;7.78;;;;;;;26.49;39.54;101606.53;5033518;28;20075;-64
2022/05/12 06:41:58;;;;;;;10.60;7.50;;;;;;;26.73;38.92;101607.78;5033590;28;20531;-64
2022/05/12 06:44:24;;;;;;;13.38;6.72;;;;;;;26.95;39.08;101603.69;5033419;28;20025;-65
2022/05/12 06:46:49;;;;;;;17.00;7.30;;;;;;;26.81;39.20;101607.56;5033405;28;20025;-64
2022/05/12 06:49:17;;;;;;;11.20;6.53;;;;;;;26.64;38.98;101609.06;5033419;28;20040;-65
2022/05/12 06:51:45;;;;;;;13.02;6.63;;;;;;;26.40;39.28;101607.84;5033341;28;20029;-64
2022/05/12 06:54:10;;;;;;;12.45;7.30;;;;;;;26.35;39.43;101618.66;4999537;28;20017;-64
2022/05/12 06:56:36;;;;;;;10.82;6.28;;;;;;;26.29;38.83;101615.91;5033071;28;20099;-64
2022/05/12 06:59:02;;;;;;;15.38;5.97;;;;;;;26.15;39.00;101619.72;5033330;28;20032;-64
2022/05/12 07:01:27;;;;;;;10.73;5.80;;;;;;;26.02;38.63;101621.34;5033515;28;20116;-64
2022/05/12 07:03:56;;;;;;;12.38;6.80;;;;;;;26.13;39.25;101621.78;5015507;28;20534;-65
2022/05/12 07:06:21;;;;;;;9.85;5.95;;;;;;;26.16;38.54;101629.66;5015572;28;20026;-65
2022/05/12 07:08:47;;;;;;;12.25;5.90;;;;;;;26.11;38.94;101621.13;5015562;28;20539;-65
2022/05/12 07:11:12;;;;;;;8.15;6.10;;;;;;;26.07;39.28;101619.88;5033098;28;20036;-65
2022/05/12 07:13:38;;;;;;;12.68;6.55;;;;;;;26.10;39.17;101627.72;5033144;28;20021;-65
2022/05/12 07:16:04;;;;;;;9.73;6.10;;;;;;;26.15;39.13;101626.06;5033107;28;20025;-65
2022/05/12 07:18:30;;;;;;;11.77;5.97;;;;;;;26.17;39.12;101634.06;5033239;28;20032;-65
2022/05/12 07:26:35;;;;;;;10.90;6.00;;;;;;;26.05;39.44;101636.56;5033392;28;20115;-65
2022/05/12 07:29:05;;;;;;;10.52;6.70;;;;;;;25.94;39.41;101640.78;5033123;28;20083;-65
2022/05/12 07:31:30;;;;;;;12.55;6.13;;;;;;;25.91;39.16;101638.47;5035756;28;20053;-65
2022/05/12 07:33:57;;;;;;;13.68;6.22;;;;;;;25.88;39.23;101641.63;5037288;28;20475;-64
2022/05/12 07:36:28;;;;;;;11.90;6.18;;;;;;;25.86;39.56;101651.97;5037202;28;20033;-64
2022/05/12 07:38:55;;;;;;;7.63;5.40;;;;;;;25.79;39.52;101656.63;5019129;28;20517;-64
2022/05/12 07:41:20;;;;;;;8.73;5.18;;;;;;;25.74;39.67;101655.56;5037035;28;20495;-65
2022/05/12 07:43:46;;;;;;;11.07;5.80;;;;;;;25.81;39.44;101654.50;5036781;28;20028;-65
2022/05/12 07:46:13;;;;;;;11.80;6.13;;;;;;;25.93;39.14;101650.09;5036894;28;20022;-64
2022/05/12 07:48:39;;;;;;;10.18;5.45;;;;;;;26.17;38.62;101656.03;5019029;28;20399;-64
2022/05/12 07:51:05;;;;;;;7.20;5.57;;;;;;;26.80;38.05;101652.59;5036804;28;20033;-65
2022/05/12 07:53:31;;;;;;;6.78;4.85;;;;;;;26.61;39.03;101654.31;5019044;28;20031;-64
2022/05/12 07:55:56;;;;;;;8.38;5.35;;;;;;;26.56;38.89;101672.50;5036671;28;20033;-65
2022/05/12 07:58:22;;;;;;;11.68;5.75;;;;;;;26.69;38.50;101663.41;5036897;28;20047;-64
2022/05/12 08:00:47;;;;;;;10.60;6.15;;;;;;;26.87;38.12;101667.19;5036481;28;20025;-64
2022/05/12 08:03:13;;;;;;;11.70;5.88;;;;;;;26.72;38.33;101666.56;5036396;28;20038;-64
2022/05/12 08:05:38;;;;;;;8.07;4.82;;;;;;;26.90;38.21;101674.16;5036424;28;20090;-65
2022/05/12 08:08:05;;;;;;;8.63;5.63;;;;;;;27.22;37.95;101675.13;5036381;28;20033;-64
2022/05/12 08:10:31;;;;;;;11.02;5.68;;;;;;;27.35;37.93;101677.81;5036392;28;20021;-64
2022/05/12 08:12:57;;;;;;;8.93;6.13;;;;;;;27.24;37.66;101681.25;5036347;28;20394;-65
2022/05/12 08:15:25;;;;;;;7.03;4.32;;;;;;;27.11;38.46;101676.63;5018481;28;20029;-65
2022/05/12 08:17:51;;;;;;;6.40;3.88;;;;;;;26.96;38.39;101679.66;5036446;28;20078;-65
2022/05/12 08:20:17;;;;;;;10.43;4.22;;;;;;;26.85;38.09;101690.47;5036392;28;20143;-64
2022/05/12 08:22:42;;;;;;;10.35;4.55;;;;;;;26.68;38.09;101681.81;5036168;28;20531;-64
2022/05/12 08:25:08;;;;;;;14.88;4.65;;;;;;;26.61;37.51;101686.47;5035944;28;20360;-64
2022/05/12 08:27:34;;;;;;;12.20;4.32;;;;;;;26.64;37.94;101686.03;5036281;28;20033;-64
2022/05/12 08:30:00;;;;;;;7.88;4.18;;;;;;;27.11;37.62;101691.25;5036478;28;20379;-64
2022/05/12 08:32:25;;;;;;;9.90;3.38;;;;;;;27.52;36.50;101695.56;5018194;28;20029;-64
2022/05/12 08:34:51;;;;;;;5.40;3.20;;;;;;;27.40;37.65;101689.00;5035989;28;20415;-65
2022/05/12 08:37:17;;;;;;;6.68;3.75;;;;;;;27.21;37.63;101689.94;5036464;28;20053;-64
2022/05/12 08:39:44;;;;;;;8.57;3.55;;;;;;;27.83;36.08;101687.34;5036984;28;20021;-64
2022/05/12 08:42:22;;;;;;;6.85;3.25;;;;;;;28.40;35.82;101685.44;5034698;28;20033;-64
2022/05/12 08:44:48;;;;;;;5.13;2.78;;;;;;;28.83;35.50;101683.59;5019033;28;20021;-65
2022/05/12 08:47:15;;;;;;;8.90;3.22;;;;;;;29.11;34.81;101675.63;5035849;28;20033;-65
2022/05/12 08:49:51;;;;;;;7.10;3.10;;;;;;;29.52;34.80;101677.66;5035866;28;20444;-65
2022/05/12 08:52:24;;;;;;;4.25;2.88;;;;;;;29.78;34.04;101679.22;5035624;28;20101;-65
2022/05/12 08:54:54;;;;;;;4.18;2.83;;;;;;;30.01;33.80;101676.56;5035752;28;20044;-66
2022/05/12 08:57:58;;;;;;;6.53;3.80;;;;;;;30.38;33.66;101678.09;5035344;28;20077;-64
2022/05/12 09:00:27;;;;;;;6.70;2.80;;;;;;;30.68;33.37;101677.16;4995134;28;20483;-65
2022/05/12 09:03:08;;;;;;;3.60;2.30;;;;;;;30.30;34.09;101672.88;5035335;28;20053;-64
2022/05/12 09:05:43;;;;;;;5.35;3.10;;;;;;;30.63;33.04;101682.56;5035295;28;20033;-65
2022/05/12 09:08:30;;;;;;;7.57;4.15;;;;;;;30.93;32.41;101672.22;5017650;28;20029;-65
2022/05/12 09:11:02;;;;;;;7.47;3.55;;;;;;;31.28;32.54;101675.75;5035216;28;20026;-65
2022/05/12 09:13:34;;;;;;;6.85;3.05;;;;;;;31.03;32.99;101680.75;5017564;28;20017;-64
2022/05/12 09:16:21;;;;;;;5.20;3.20;;;;;;;30.61;32.59;101687.47;5035192;28;20487;-65
2022/05/12 09:18:47;;;;;;;8.43;2.72;;;;;;;30.18;32.94;101691.38;5035035;28;20387;-65
2022/05/12 09:21:22;;;;;;;3.88;3.22;;;;;;;30.11;32.86;101693.41;5035445;28;20091;-65
2022/05/12 09:23:47;;;;;;;5.10;3.28;;;;;;;29.82;32.80;101703.41;5035017;28;20549;-65
2022/05/12 09:26:33;;;;;;;5.95;3.05;;;;;;;29.37;33.16;101697.41;5035265;28;20053;-65
2022/05/12 09:29:17;;;;;;;9.05;2.85;;;;;;;29.07;33.87;101701.13;5035387;28;20048;-65
2022/05/12 09:31:50;;;;;;;5.22;2.72;;;;;;;29.12;33.35;101693.84;5017225;28;20079;-65
2022/05/12 09:34:30;;;;;;;7.68;2.92;;;;;;;29.32;32.98;101688.97;5034953;28;20028;-65
2022/05/12 09:36:56;;;;;;;7.55;2.70;;;;;;;29.79;32.00;101689.16;5035213;28;20034;-65
2022/05/12 09:39:33;;;;;;;6.43;2.58;;;;;;;29.47;33.30;101696.84;5035188;28;20023;-65
2022/05/12 09:42:00;;;;;;;7.50;2.88;;;;;;;29.25;32.62;101698.41;5034982;28;20029;-65
2022/05/12 09:44:27;;;;;;;2.67;1.88;;;;;;;29.03;32.58;101698.00;5034861;28;20025;-65
2022/05/12 09:46:59;;;;;;;4.13;1.90;;;;;;;29.30;32.16;101698.56;5034792;28;20029;-64
2022/05/12 09:49:33;;;;;;;3.13;2.30;;;;;;;29.76;31.77;101697.97;5035033;28;20029;-65
2022/05/12 09:52:18;;;;;;;9.85;2.50;;;;;;;30.43;31.34;101692.03;5034675;28;20033;-65
2022/05/12 09:54:44;;;;;;;5.35;2.72;;;;;;;30.90;31.18;101678.22;5034243;28;20096;-65
2022/05/12 09:57:12;;;;;;;6.22;2.88;;;;;;;31.43;30.61;101681.63;5034108;28;20073;-65
2022/05/12 09:59:38;;;;;;;4.22;3.75;;;;;;;32.20;30.00;101676.44;5034439;28;20029;-65
2022/05/12 10:07:53;;;;;;;7.38;2.80;;;;;;;32.34;29.67;101682.50;5034185;28;20383;-66
2022/05/12 10:08:27;;;;;;;3.60;1.70;;;;;;;31.40;30.66;101681.25;5033954;28;20079;-65
2022/05/12 10:10:56;;;;;;;6.20;1.52;;;;;;;31.64;29.61;101672.63;5034055;28;20144;-64
2022/05/12 10:13:42;;;;;;;9.68;1.85;;;;;;;31.15;30.02;101676.03;5034241;28;20043;-65
2022/05/12 10:16:09;;;;;;;3.45;1.70;;;;;;;31.22;29.78;101679.50;5034006;28;20450;-65
2022/05/12 10:18:40;;;;;;;5.53;2.40;;;;;;;30.80;30.10;101672.44;5016272;28;20040;-65
2022/05/12 10:21:30;;;;;;;3.20;1.50;;;;;;;30.41;29.87;101680.38;5033836;28;20108;-65
2022/05/12 10:24:20;;;;;;;4.30;1.65;;;;;;;30.50;29.53;101678.94;5016877;28;20044;-66
2022/05/12 10:27:14;;;;;;;5.63;2.50;;;;;;;31.00;29.13;101679.31;5016325;28;20033;-65
2022/05/12 10:30:09;;;;;;;4.75;1.70;;;;;;;31.72;28.44;101679.69;5015981;28;20032;-65
2022/05/12 10:32:45;;;;;;;4.05;1.80;;;;;;;32.40;27.78;101676.78;5019568;28;20430;-66
2022/05/12 10:35:13;;;;;;;3.03;1.33;;;;;;;32.97;27.27;101666.28;5033746;28;20483;-66
2022/05/12 10:38:08;;;;;;;4.18;2.33;;;;;;;33.46;27.87;101664.44;5016095;28;20032;-65
2022/05/12 10:40:45;;;;;;;2.72;1.13;;;;;;;33.90;27.09;101666.06;5015985;28;20022;-65
2022/05/12 10:43:53;;;;;;;3.22;1.65;;;;;;;34.48;25.76;101661.56;5016006;28;20057;-65
2022/05/12 10:46:29;;;;;;;3.97;1.63;;;;;;;34.66;26.71;101663.94;4996481;28;20044;-65
2022/05/12 10:49:03;;;;;;;2.00;0.90;;;;;;;34.72;25.94;101674.03;5033607;28;20049;-65
2022/05/12 10:51:40;;;;;;;2.67;1.60;;;;;;;35.30;24.91;101658.16;5033342;28;20030;-65
2022/05/12 10:54:30;;;;;;;2.38;1.52;;;;;;;35.72;24.37;101660.81;5015881;28;20057;-65
2022/05/12 10:57:06;;;;;;;1.55;1.15;;;;;;;36.07;24.10;101667.31;5015621;28;20049;-65
2022/05/12 10:59:55;;;;;;;2.90;1.00;;;;;;;36.43;23.22;101656.16;5033681;28;20052;-65
2022/05/12 11:02:39;;;;;;;1.05;0.80;;;;;;;36.45;23.82;101646.38;5015658;28;20498;-66
2022/05/12 11:05:22;;;;;;;1.13;0.82;;;;;;;36.52;23.26;101648.88;5032717;28;20018;-65
2022/05/12 11:07:52;;;;;;;2.05;0.98;;;;;;;36.85;22.89;101655.81;5033625;28;20033;-65
2022/05/12 11:10:26;;;;;;;2.42;0.73;;;;;;;36.54;22.39;101638.28;5033279;28;20108;-66
2022/05/12 11:12:55;;;;;;;2.80;1.17;;;;;;;36.84;22.03;101645.75;5015775;28;20022;-66
2022/05/12 11:16:08;;;;;;;2.65;1.13;;;;;;;37.13;22.03;101647.59;5015528;28;20116;-66
2022/05/12 11:18:52;;;;;;;3.20;0.98;;;;;;;36.78;22.63;101642.13;4953071;29;20035;-66
2022/05/12 11:21:19;;;;;;;4.18;1.10;;;;;;;37.21;22.29;101635.00;4953153;29;20028;-65
2022/05/12 11:23:54;;;;;;;1.77;0.85;;;;;;;37.55;21.33;101635.94;4952982;29;20151;-65
2022/05/12 11:26:39;;;;;;;1.10;0.90;;;;;;;37.96;21.75;101635.69;4953075;29;20531;-65
2022/05/12 11:32:03;;;;;;;2.25;0.30;;;;;;;37.97;21.26;101631.78;4952953;29;20110;-65
2022/05/12 11:34:29;;;;;;;1.52;0.57;;;;;;;37.58;21.50;101634.56;4952933;29;20516;-65
2022/05/12 11:36:55;;;;;;;1.73;0.57;;;;;;;37.70;20.72;101632.22;4953001;29;20035;-66
2022/05/12 11:39:38;;;;;;;1.10;0.45;;;;;;;37.84;20.63;101633.25;4952942;29;20027;-65
2022/05/12 11:42:18;;;;;;;1.75;0.50;;;;;;;38.01;20.31;101628.09;4953010;29;20050;-66
2022/05/12 11:44:46;;;;;;;0.50;0.50;;;;;;;38.20;19.75;101622.59;4952844;29;20023;-66
2022/05/12 11:47:44;;;;;;;1.83;0.90;;;;;;;38.44;19.56;101620.75;4952988;29;20394;-66